Online Now
Guests 1
Members   0

24/7 FSX Server
IP: 71.135.74.145
@ KDFW until 5/20/22



Information and tools for flight simulation use only - NOT for real avaition

File Flight Plans Here

KDFW 201953Z 18021G32KT 9SM FEW055 SCT300 34/21 A2957 RMK AO2 PK WND 16032/1859 SLP001 T03390206 KDFW 201738Z 2018/2124 18022G32KT P6SM FEW250 FM210100 16017G27KT P6SM BKN250 FM210400 17017KT P6SM BKN250 FM211100 17015KT P6SM BKN015 FM211700 21017KT P6SM BKN040 FM212200 34017G27KT P6SM SCT040
Aviation Digital Data Service (ADDS)



Other FSX servers